createdAt,value
2022-11-07T00:00:16.386Z,2.20
2022-11-07T00:03:03.347Z,2.17
2022-11-07T00:05:50.263Z,2.30
2022-11-07T00:08:37.174Z,2.33
2022-11-07T00:11:24.051Z,2.20
2022-11-07T00:14:14.834Z,2.10
2022-11-07T00:17:01.671Z,2.00
2022-11-07T00:19:49.366Z,2.30
2022-11-07T00:22:36.426Z,2.20
2022-11-07T00:25:23.301Z,2.30
2022-11-07T00:28:10.058Z,2.37
2022-11-07T00:30:58.351Z,2.40
2022-11-07T00:33:45.249Z,2.00
2022-11-07T00:36:32.351Z,2.07
2022-11-07T00:39:19.271Z,2.53
2022-11-07T00:42:06.186Z,2.23
2022-11-07T00:44:53.052Z,2.00
2022-11-07T00:47:40.068Z,2.47
2022-11-07T00:50:26.952Z,2.43
2022-11-07T00:53:14.198Z,2.13
2022-11-07T00:56:02.631Z,2.00
2022-11-07T00:58:53.302Z,2.53
2022-11-07T01:01:40.310Z,2.37
2022-11-07T01:04:45.789Z,2.13
2022-11-07T01:07:33.755Z,2.67
2022-11-07T01:10:20.638Z,2.40
2022-11-07T01:13:07.401Z,2.43
2022-11-07T01:15:54.246Z,2.67
2022-11-07T01:18:41.063Z,2.80
2022-11-07T01:21:27.882Z,2.47
2022-11-07T01:24:15.084Z,2.13
2022-11-07T01:27:01.882Z,2.40
2022-11-07T01:29:48.777Z,2.40
2022-11-07T01:32:35.542Z,2.80
2022-11-07T01:35:22.412Z,2.80
2022-11-07T01:38:09.259Z,2.23
2022-11-07T01:41:14.727Z,2.30
2022-11-07T01:44:03.052Z,2.33
2022-11-07T01:46:50.692Z,2.80
2022-11-07T01:49:39.189Z,2.67
2022-11-07T01:52:30.753Z,2.10
2022-11-07T01:55:27.407Z,2.50
2022-11-07T01:58:14.319Z,2.43
2022-11-07T02:01:01.606Z,2.40
2022-11-07T02:03:49.389Z,2.23
2022-11-07T02:06:45.079Z,2.43
2022-11-07T02:09:32.012Z,2.37
2022-11-07T02:12:19.316Z,2.63
2022-11-07T02:15:08.255Z,1.83
2022-11-07T02:17:55.454Z,2.47
2022-11-07T02:20:42.275Z,2.47
2022-11-07T02:23:36.471Z,2.40
2022-11-07T02:26:24.196Z,2.43
2022-11-07T02:29:13.046Z,2.97
2022-11-07T02:32:01.138Z,2.33
2022-11-07T02:35:01.122Z,2.13
2022-11-07T02:37:48.570Z,2.60
2022-11-07T02:40:35.378Z,2.13
2022-11-07T02:43:23.755Z,2.27
2022-11-07T02:46:12.009Z,2.43
2022-11-07T02:48:59.805Z,2.93
2022-11-07T02:51:46.642Z,2.40
2022-11-07T02:54:33.749Z,2.20
2022-11-07T02:57:20.598Z,2.27
2022-11-07T03:00:08.256Z,2.90
2022-11-07T03:02:55.211Z,2.13
2022-11-07T03:05:42.062Z,2.47
2022-11-07T03:08:29.189Z,2.37
2022-11-07T03:11:20.007Z,2.30
2022-11-07T03:14:07.033Z,2.30
2022-11-07T03:16:53.846Z,2.60
2022-11-07T03:19:40.897Z,2.23
2022-11-07T03:22:27.806Z,2.23
2022-11-07T03:25:14.603Z,2.70
2022-11-07T03:28:01.388Z,3.03
2022-11-07T03:30:48.284Z,2.40
2022-11-07T03:33:35.140Z,2.13
2022-11-07T03:36:22.054Z,2.40
2022-11-07T03:39:08.878Z,2.27
2022-11-07T03:41:55.781Z,2.10
2022-11-07T03:44:42.660Z,2.30
2022-11-07T03:47:30.092Z,2.30
2022-11-07T03:50:18.961Z,2.40
2022-11-07T03:53:05.769Z,2.03
2022-11-07T03:55:54.062Z,2.03
2022-11-07T03:58:40.974Z,2.07
2022-11-07T04:01:27.975Z,1.90
2022-11-07T04:04:14.895Z,2.30
2022-11-07T04:07:01.851Z,2.40
2022-11-07T04:09:48.657Z,2.03
2022-11-07T04:12:54.085Z,2.27
2022-11-07T04:16:01.204Z,2.07
2022-11-07T04:18:47.980Z,2.23
2022-11-07T04:21:34.774Z,2.00
2022-11-07T04:24:21.674Z,2.00
2022-11-07T04:27:30.479Z,2.43
2022-11-07T04:30:26.935Z,1.90
2022-11-07T04:33:14.112Z,2.30
2022-11-07T04:36:01.307Z,2.27
2022-11-07T04:38:48.138Z,2.23
2022-11-07T04:41:34.990Z,2.60
2022-11-07T04:44:21.986Z,2.37
2022-11-07T04:47:08.825Z,2.50
2022-11-07T04:49:55.686Z,2.07
2022-11-07T04:52:42.834Z,2.40
2022-11-07T04:55:30.799Z,1.77
2022-11-07T04:58:17.610Z,2.27
2022-11-07T05:01:04.513Z,2.43
2022-11-07T05:03:51.387Z,2.43
2022-11-07T05:06:38.304Z,2.70
2022-11-07T05:09:25.146Z,2.27
2022-11-07T05:12:12.015Z,2.70
2022-11-07T05:14:59.384Z,2.00
2022-11-07T05:17:46.657Z,1.90
2022-11-07T05:20:34.811Z,2.30
2022-11-07T05:23:22.263Z,2.27
2022-11-07T05:26:09.482Z,1.90
2022-11-07T05:28:56.385Z,2.03
2022-11-07T05:31:43.133Z,2.43
2022-11-07T05:34:29.962Z,1.87
2022-11-07T05:37:16.791Z,2.33
2022-11-07T05:40:04.259Z,1.93
2022-11-07T05:42:51.034Z,2.30
2022-11-07T05:45:38.642Z,2.37
2022-11-07T05:48:25.415Z,2.30
2022-11-07T05:51:12.228Z,1.93
2022-11-07T05:53:59.301Z,1.90
2022-11-07T05:56:46.218Z,1.93
2022-11-07T05:59:33.073Z,2.10
2022-11-07T06:02:20.018Z,2.20
2022-11-07T06:05:07.514Z,2.23
2022-11-07T06:07:54.573Z,2.03
2022-11-07T06:10:42.101Z,2.10
2022-11-07T06:13:28.913Z,2.07
2022-11-07T06:16:15.722Z,2.10
2022-11-07T06:19:02.925Z,2.00
2022-11-07T06:21:49.715Z,1.80
2022-11-07T06:24:36.630Z,1.93
2022-11-07T06:27:23.417Z,2.00
2022-11-07T06:30:10.463Z,2.23
2022-11-07T06:33:00.582Z,1.90
2022-11-07T06:35:47.526Z,2.10
2022-11-07T06:38:34.850Z,1.67
2022-11-07T06:41:21.701Z,2.20
2022-11-07T06:44:08.546Z,2.30
2022-11-07T06:46:55.402Z,1.83
2022-11-07T06:49:42.367Z,2.00
2022-11-07T06:52:29.232Z,2.23
2022-11-07T06:55:16.099Z,1.80
2022-11-07T06:58:03.349Z,2.50
2022-11-07T07:00:50.168Z,1.90
2022-11-07T07:03:37.265Z,1.87
2022-11-07T07:06:24.335Z,1.80
2022-11-07T07:09:11.413Z,1.83
2022-11-07T07:11:58.290Z,1.73
2022-11-07T07:14:45.104Z,2.20
2022-11-07T07:17:31.894Z,2.40
2022-11-07T07:20:18.736Z,2.23
2022-11-07T07:23:05.926Z,1.97
2022-11-07T07:25:53.113Z,1.83
2022-11-07T07:28:40.223Z,1.93
2022-11-07T07:31:30.744Z,1.97
2022-11-07T07:34:17.643Z,2.03
2022-11-07T07:37:04.414Z,1.57
2022-11-07T07:39:52.553Z,2.13
2022-11-07T07:42:43.362Z,1.90
2022-11-07T07:45:30.358Z,1.67
2022-11-07T07:48:17.187Z,1.80
2022-11-07T07:51:04.126Z,2.10
2022-11-07T07:53:50.930Z,1.90
2022-11-07T07:56:37.765Z,1.87
2022-11-07T07:59:24.556Z,1.70
2022-11-07T08:02:12.111Z,2.40
2022-11-07T08:04:59.015Z,1.90
2022-11-07T08:07:49.750Z,2.10
2022-11-07T08:10:43.645Z,2.00
2022-11-07T08:13:30.590Z,1.43
2022-11-07T08:16:17.370Z,2.20
2022-11-07T08:19:04.234Z,1.87
2022-11-07T08:21:51.060Z,1.90
2022-11-07T08:24:38.463Z,1.87
2022-11-07T08:27:25.302Z,2.23
2022-11-07T08:30:17.785Z,2.13
2022-11-07T08:33:05.095Z,2.20
2022-11-07T08:35:53.602Z,1.87
2022-11-07T08:38:40.471Z,2.00
2022-11-07T08:41:27.311Z,1.80
2022-11-07T08:44:14.177Z,2.20
2022-11-07T08:47:04.485Z,2.03
2022-11-07T08:49:55.096Z,2.10
2022-11-07T08:52:41.871Z,2.27
2022-11-07T08:55:28.727Z,1.97
2022-11-07T08:58:15.663Z,2.40
2022-11-07T09:01:05.240Z,2.03
2022-11-07T09:03:56.797Z,1.80
2022-11-07T09:06:45.059Z,2.13
2022-11-07T09:09:31.909Z,2.07
2022-11-07T09:12:19.729Z,2.60
2022-11-07T09:15:06.991Z,1.77
2022-11-07T09:17:53.847Z,2.07
2022-11-07T09:20:40.603Z,2.33
2022-11-07T09:23:27.876Z,2.43
2022-11-07T09:26:14.714Z,1.93
2022-11-07T09:29:01.616Z,2.00
2022-11-07T09:31:48.474Z,2.00
2022-11-07T09:34:35.365Z,2.20
2022-11-07T09:37:22.336Z,2.73
2022-11-07T09:40:21.432Z,2.30
2022-11-07T09:43:22.424Z,2.27
2022-11-07T09:46:09.571Z,2.10
2022-11-07T09:49:15.286Z,2.10
2022-11-07T09:52:03.399Z,2.23
2022-11-07T09:54:53.486Z,2.10
2022-11-07T09:57:40.389Z,2.13
2022-11-07T10:00:29.603Z,2.00
2022-11-07T10:03:16.761Z,2.00
2022-11-07T10:06:16.715Z,1.70
2022-11-07T10:09:10.246Z,2.27
2022-11-07T10:12:09.540Z,1.80
2022-11-07T10:15:11.858Z,2.13
2022-11-07T10:18:04.719Z,1.93
2022-11-07T10:21:05.408Z,2.40
2022-11-07T10:24:02.369Z,2.50
2022-11-07T10:26:49.159Z,2.30
2022-11-07T10:29:44.364Z,2.93
2022-11-07T10:32:31.506Z,1.97
2022-11-07T10:35:18.331Z,2.17
2022-11-07T10:38:22.130Z,2.47
2022-11-07T10:41:16.439Z,2.40
2022-11-07T10:44:04.503Z,2.67
2022-11-07T10:46:54.372Z,2.50
2022-11-07T10:49:41.655Z,2.70
2022-11-07T10:52:28.942Z,2.80
2022-11-07T10:55:16.469Z,2.30
2022-11-07T10:58:06.931Z,2.67
2022-11-07T11:00:58.262Z,2.83
2022-11-07T11:03:46.210Z,2.57
2022-11-07T11:06:33.106Z,2.53
2022-11-07T11:09:20.133Z,2.43
2022-11-07T11:12:07.740Z,2.63
2022-11-07T11:15:10.951Z,2.70
2022-11-07T11:18:02.155Z,2.80
2022-11-07T11:20:57.392Z,2.50
2022-11-07T11:23:45.163Z,2.33
2022-11-07T11:26:33.863Z,3.00
2022-11-07T11:29:20.836Z,3.10
2022-11-07T11:32:12.619Z,2.73
2022-11-07T11:35:08.447Z,2.53
2022-11-07T11:38:00.631Z,2.60
2022-11-07T11:40:49.491Z,2.67
2022-11-07T11:43:59.685Z,2.57
2022-11-07T11:46:58.227Z,2.83
2022-11-07T11:49:48.272Z,2.43
2022-11-07T11:52:35.698Z,2.70
2022-11-07T11:55:24.247Z,3.00
2022-11-07T11:58:18.719Z,3.03
2022-11-07T12:01:18.727Z,3.27
2022-11-07T12:04:30.347Z,3.33
2022-11-07T12:07:32.484Z,3.00
2022-11-07T12:10:25.142Z,3.07
2022-11-07T12:13:12.142Z,2.97
2022-11-07T12:16:17.815Z,2.50
2022-11-07T12:19:15.503Z,2.50
2022-11-07T12:22:14.554Z,2.67
2022-11-07T12:25:12.538Z,2.70
2022-11-07T12:28:17.634Z,2.70
2022-11-07T12:31:10.757Z,2.97
2022-11-07T12:34:05.223Z,2.80
2022-11-07T12:36:58.113Z,2.20
2022-11-07T12:40:04.683Z,2.90
2022-11-07T12:42:58.906Z,2.90
2022-11-07T12:46:16.414Z,2.70
2022-11-07T12:49:14.546Z,2.90
2022-11-07T12:52:01.308Z,2.53
2022-11-07T12:54:57.795Z,2.77
2022-11-07T12:57:45.718Z,2.83
2022-11-07T13:00:32.858Z,3.17
2022-11-07T13:03:38.596Z,3.03
2022-11-07T13:06:29.979Z,2.77
2022-11-07T13:09:28.903Z,3.13
2022-11-07T13:12:42.184Z,3.27
2022-11-07T13:15:34.325Z,3.30
2022-11-07T13:18:29.188Z,2.37
2022-11-07T13:21:16.083Z,2.23
2022-11-07T13:24:06.121Z,2.60
2022-11-07T13:26:53.372Z,3.10
2022-11-07T13:29:40.598Z,2.73
2022-11-07T13:32:37.900Z,3.17
2022-11-07T13:35:29.051Z,2.97
2022-11-07T13:38:18.648Z,2.97
2022-11-07T13:41:07.704Z,3.13
2022-11-07T13:44:05.550Z,3.00
2022-11-07T13:46:53.555Z,3.20
2022-11-07T13:49:45.319Z,3.20
2022-11-07T13:52:43.042Z,3.13
2022-11-07T13:55:41.975Z,3.90
2022-11-07T13:58:31.362Z,3.70
2022-11-07T14:01:18.253Z,3.63
2022-11-07T14:04:19.998Z,3.87
2022-11-07T14:07:06.866Z,4.33
2022-11-07T14:09:58.041Z,3.43
2022-11-07T14:12:45.030Z,3.43
2022-11-07T14:15:31.908Z,3.37
2022-11-07T14:18:19.850Z,3.40
2022-11-07T14:21:18.562Z,3.60
2022-11-07T14:24:20.635Z,3.47
2022-11-07T14:27:13.454Z,3.67
2022-11-07T14:30:00.459Z,3.30
2022-11-07T14:32:51.559Z,3.50
2022-11-07T14:35:44.163Z,3.60
2022-11-07T14:38:30.985Z,3.83
2022-11-07T14:41:18.673Z,3.73
2022-11-07T14:44:05.803Z,3.70
2022-11-07T14:46:53.171Z,4.07
2022-11-07T14:49:41.723Z,4.00
2022-11-07T14:52:32.174Z,3.53
2022-11-07T14:55:24.737Z,3.67
2022-11-07T14:58:12.031Z,3.70
2022-11-07T15:01:07.932Z,3.67
2022-11-07T15:04:02.370Z,4.03
2022-11-07T15:06:49.200Z,3.83
2022-11-07T15:09:36.068Z,3.73
2022-11-07T15:12:24.452Z,3.33
2022-11-07T15:15:22.461Z,3.50
2022-11-07T15:18:24.947Z,4.00
2022-11-07T15:21:13.514Z,3.33
2022-11-07T15:24:01.463Z,3.67
2022-11-07T15:26:58.398Z,3.63
2022-11-07T15:29:51.517Z,3.53
2022-11-07T15:32:41.957Z,3.67
2022-11-07T15:35:45.154Z,3.17
2022-11-07T15:38:32.160Z,3.20
2022-11-07T15:41:19.358Z,3.13
2022-11-07T15:44:06.197Z,3.53
2022-11-07T15:46:53.024Z,3.23
2022-11-07T15:49:39.861Z,3.13
2022-11-07T15:52:26.626Z,2.87
2022-11-07T15:55:14.366Z,3.20
2022-11-07T15:58:01.227Z,2.90
2022-11-07T16:00:48.115Z,3.10
2022-11-07T16:03:34.999Z,3.17
2022-11-07T16:06:21.990Z,3.70
2022-11-07T16:09:19.302Z,3.33
2022-11-07T16:12:06.359Z,3.50
2022-11-07T16:14:55.907Z,3.20
2022-11-07T16:17:42.888Z,3.13
2022-11-07T16:20:33.514Z,2.90
2022-11-07T16:23:21.367Z,2.90
2022-11-07T16:26:10.679Z,3.03
2022-11-07T16:28:57.527Z,2.67
2022-11-07T16:31:44.300Z,2.50
2022-11-07T16:34:31.719Z,2.70
2022-11-07T16:37:18.963Z,2.87
2022-11-07T16:40:06.744Z,2.70
2022-11-07T16:42:53.519Z,2.33
2022-11-07T16:45:44.432Z,3.00
2022-11-07T16:48:31.980Z,2.80
2022-11-07T16:51:19.915Z,2.50
2022-11-07T16:54:06.706Z,2.83
2022-11-07T16:56:53.651Z,3.07
2022-11-07T16:59:40.749Z,3.03
2022-11-07T17:02:27.650Z,2.87
2022-11-07T17:05:14.677Z,2.80
2022-11-07T17:08:02.117Z,2.70
2022-11-07T17:10:49.241Z,3.10
2022-11-07T17:13:36.075Z,3.00
2022-11-07T17:16:24.547Z,2.43
2022-11-07T17:19:12.280Z,2.37
2022-11-07T17:22:00.159Z,2.80
2022-11-07T17:24:47.441Z,2.30
2022-11-07T17:27:34.305Z,2.37
2022-11-07T17:30:21.267Z,2.00
2022-11-07T17:33:08.729Z,2.73
2022-11-07T17:35:55.730Z,2.53
2022-11-07T17:38:42.623Z,2.57
2022-11-07T17:41:30.124Z,2.60
2022-11-07T17:44:17.763Z,2.20
2022-11-07T17:47:04.731Z,1.90
2022-11-07T17:49:51.518Z,2.17
2022-11-07T17:52:38.391Z,2.57
2022-11-07T17:55:25.550Z,2.70
2022-11-07T17:58:12.545Z,2.20
2022-11-07T18:00:59.359Z,2.60
2022-11-07T18:03:46.199Z,3.33
2022-11-07T18:06:36.968Z,2.83
2022-11-07T18:09:23.824Z,2.77
2022-11-07T18:12:11.119Z,2.33
2022-11-07T18:14:58.016Z,2.23
2022-11-07T18:17:44.824Z,2.17
2022-11-07T18:20:31.784Z,2.13
2022-11-07T18:23:21.585Z,2.00
2022-11-07T18:26:13.189Z,1.80
2022-11-07T18:29:01.483Z,1.90
2022-11-07T18:31:49.889Z,2.00
2022-11-07T18:34:36.806Z,1.70
2022-11-07T18:37:27.074Z,1.70
2022-11-07T18:40:14.172Z,1.80
2022-11-07T18:43:01.203Z,1.90
2022-11-07T18:45:48.562Z,1.90
2022-11-07T18:48:35.955Z,1.60
2022-11-07T18:51:24.298Z,1.70
2022-11-07T18:54:13.070Z,1.90
2022-11-07T18:56:59.883Z,1.60
2022-11-07T18:59:46.868Z,1.77
2022-11-07T19:02:35.035Z,3.30
2022-11-07T19:05:22.541Z,1.83
2022-11-07T19:08:09.952Z,1.83
2022-11-07T19:10:57.752Z,1.77
2022-11-07T19:13:48.070Z,1.60
2022-11-07T19:16:34.882Z,1.60
2022-11-07T19:19:21.855Z,1.93
2022-11-07T19:22:12.672Z,1.93
2022-11-07T19:24:59.602Z,1.60
2022-11-07T19:27:50.642Z,3.00
2022-11-07T19:30:38.931Z,1.90
2022-11-07T19:33:25.744Z,2.20
2022-11-07T19:36:13.935Z,1.90
2022-11-07T19:39:03.089Z,1.40
2022-11-07T19:41:50.018Z,1.40
2022-11-07T19:44:37.035Z,1.87
2022-11-07T19:47:23.882Z,1.70
2022-11-07T19:50:11.397Z,1.37
2022-11-07T19:52:58.698Z,1.87
2022-11-07T19:55:45.508Z,1.80
2022-11-07T19:58:32.505Z,1.80
2022-11-07T20:01:20.471Z,2.10
2022-11-07T20:04:08.933Z,1.63
2022-11-07T20:06:55.806Z,2.07
2022-11-07T20:09:42.786Z,1.80
2022-11-07T20:12:29.696Z,1.50
2022-11-07T20:15:16.596Z,1.90
2022-11-07T20:18:03.464Z,2.20
2022-11-07T20:20:50.316Z,2.00
2022-11-07T20:23:37.091Z,1.90
2022-11-07T20:26:24.666Z,1.53
2022-11-07T20:29:11.755Z,1.70
2022-11-07T20:31:58.915Z,1.80
2022-11-07T20:34:49.942Z,1.70
2022-11-07T20:37:39.925Z,2.10
2022-11-07T20:40:29.344Z,1.50
2022-11-07T20:43:16.820Z,1.60
2022-11-07T20:46:11.537Z,1.90
2022-11-07T20:48:59.096Z,1.90
2022-11-07T20:51:45.906Z,2.00
2022-11-07T20:54:33.609Z,1.83
2022-11-07T20:57:20.431Z,1.87
2022-11-07T21:00:08.301Z,1.43
2022-11-07T21:02:55.122Z,2.10
2022-11-07T21:05:42.011Z,1.70
2022-11-07T21:08:30.824Z,1.90
2022-11-07T21:11:21.535Z,1.77
2022-11-07T21:14:09.232Z,1.60
2022-11-07T21:16:56.032Z,2.03
2022-11-07T21:19:42.916Z,1.70
2022-11-07T21:22:29.831Z,1.83
2022-11-07T21:25:17.373Z,1.70
2022-11-07T21:28:04.177Z,1.70
2022-11-07T21:31:11.086Z,1.67
2022-11-07T21:33:57.875Z,1.83
2022-11-07T21:36:45.003Z,2.17
2022-11-07T21:39:31.807Z,2.00
2022-11-07T21:42:18.725Z,1.80
2022-11-07T21:45:05.692Z,2.00
2022-11-07T21:47:52.567Z,1.63
2022-11-07T21:50:44.993Z,1.90
2022-11-07T21:53:36.726Z,1.90
2022-11-07T21:56:26.010Z,1.70
2022-11-07T21:59:12.969Z,1.87
2022-11-07T22:01:59.819Z,2.27
2022-11-07T22:04:47.099Z,1.87
2022-11-07T22:07:37.420Z,1.80
2022-11-07T22:10:24.635Z,2.00
2022-11-07T22:13:11.474Z,1.50
2022-11-07T22:16:04.431Z,1.73
2022-11-07T22:18:51.536Z,1.90
2022-11-07T22:21:39.050Z,1.87
2022-11-07T22:24:27.744Z,1.93
2022-11-07T22:27:14.858Z,2.00
2022-11-07T22:30:02.447Z,1.80
2022-11-07T22:32:51.053Z,1.87
2022-11-07T22:35:38.816Z,2.00
2022-11-07T22:38:26.279Z,1.87
2022-11-07T22:41:18.859Z,1.90
2022-11-07T22:44:06.387Z,2.27
2022-11-07T22:46:53.514Z,1.97
2022-11-07T22:49:40.780Z,2.00
2022-11-07T22:52:28.041Z,1.80
2022-11-07T22:55:14.958Z,1.87
2022-11-07T22:58:02.383Z,1.97
2022-11-07T23:00:49.323Z,1.97
2022-11-07T23:03:36.237Z,1.93
2022-11-07T23:06:24.896Z,2.70
2022-11-07T23:09:16.408Z,2.00
2022-11-07T23:12:03.292Z,2.00
2022-11-07T23:14:50.247Z,2.07
2022-11-07T23:17:38.211Z,2.07
2022-11-07T23:20:43.879Z,1.90
2022-11-07T23:23:31.863Z,2.40
2022-11-07T23:26:18.880Z,2.00
2022-11-07T23:29:10.967Z,1.83
2022-11-07T23:31:58.331Z,2.43
2022-11-07T23:34:45.148Z,2.50
2022-11-07T23:37:31.955Z,1.80
2022-11-07T23:40:18.760Z,2.17
2022-11-07T23:43:05.577Z,1.87
2022-11-07T23:46:11.057Z,2.27
2022-11-07T23:49:16.791Z,2.47
2022-11-07T23:52:04.148Z,2.20
2022-11-07T23:55:09.635Z,2.50
2022-11-07T23:58:15.702Z,2.13
